Time;durP1;ratioP1;P1;durP2;ratioP2;P2;SDS_P1;SDS_P2;PMS_P1;PMS_P2;Temp;Humidity;BMP_temperature;BMP_pressure;BME280_temperature;BME280_humidity;BME280_pressure;Samples;Min_cycle;Max_cycle;Signal;HPM_P1;HPM_P2
2022/05/17 00:01:03;;;;;;;;;;;;;;;;;;5075513;28;19909;-43
2022/05/17 00:03:28;;;;;;;;;;;;;;;;;;5074036;28;19922;-44
2022/05/17 00:05:54;;;;;;;;;;;;;;;;;;5065744;28;19939;-44
2022/05/17 00:08:19;;;;;;;;;;;;;;;;;;5055585;28;19954;-44
2022/05/17 00:10:44;;;;;;;;;;;;;;;;;;5055724;28;19966;-43
2022/05/17 00:13:09;;;;;;;;;;;;;;;;;;5055647;28;20042;-43
2022/05/17 00:15:34;;;;;;;;;;;;;;;;;;5063986;28;20046;-45
2022/05/17 00:17:59;;;;;;;;;;;;;;;;;;5075219;28;19962;-43
2022/05/17 00:20:26;;;;;;;;;;;;;;;;;;5074288;28;20315;-43
2022/05/17 00:22:51;;;;;;;;;;;;;;;;;;5075062;28;19962;-45
2022/05/17 00:25:16;;;;;;;;;;;;;;;;;;5075070;28;20278;-43
2022/05/17 00:27:41;;;;;;;;;;;;;;;;;;5074957;28;20275;-44
2022/05/17 00:30:06;;;;;;;;;;;;;;;;;;5075058;28;19908;-43
2022/05/17 00:32:31;;;;;;;;;;;;;;;;;;5075081;28;19909;-43
2022/05/17 00:34:56;;;;;;;;;;;;;;;;;;5068576;28;19913;-44
2022/05/17 00:37:22;;;;;;;;;;;;;;;;;;5055078;28;19916;-43
2022/05/17 00:39:47;;;;;;;;;;;;;;;;;;5054815;28;19916;-44
2022/05/17 00:42:12;;;;;;;;;;;;;;;;;;5054754;28;19912;-44
2022/05/17 00:44:43;;;;;;;;;;;;;;;;;;5054488;28;19913;-43
2022/05/17 00:47:08;;;;;;;;;;;;;;;;;;5054718;28;19912;-43
2022/05/17 00:49:33;;;;;;;;;;;;;;;;;;5054738;28;20405;-43
2022/05/17 00:51:58;;;;;;;;;;;;;;;;;;5054500;28;20011;-43
2022/05/17 00:54:24;;;;;;;;;;;;;;;;;;5054365;28;20015;-43
2022/05/17 00:56:49;;;;;;;;;;;;;;;;;;5054805;28;19909;-43
2022/05/17 00:59:14;;;;;;;;;;;;;;;;;;5054716;28;19909;-43
2022/05/17 01:01:39;;;;;;;;;;;;;;;;;;5055046;28;19909;-43
2022/05/17 01:04:04;;;;;;;;;;;;;;;;;;5054736;28;19916;-43
2022/05/17 01:06:29;;;;;;;;;;;;;;;;;;5054012;28;19985;-45
2022/05/17 01:08:54;;;;;;;;;;;;;;;;;;5054592;28;19931;-43
2022/05/17 01:11:19;;;;;;;;;;;;;;;;;;5054574;28;19905;-43
2022/05/17 01:16:28;;;;;;;;;;;;;;;;;;5053849;28;19920;-43
2022/05/17 01:18:53;;;;;;;;;;;;;;;;;;5054220;28;19912;-44
2022/05/17 01:21:19;;;;;;;;;;;;;;;;;;5054437;28;19992;-43
2022/05/17 01:23:44;;;;;;;;;;;;;;;;;;5054385;28;19999;-43
2022/05/17 01:26:09;;;;;;;;;;;;;;;;;;5053971;28;19996;-42
2022/05/17 01:28:34;;;;;;;;;;;;;;;;;;5054381;28;19935;-43
2022/05/17 01:31:04;;;;;;;;;;;;;;;;;;5054270;28;19909;-45
2022/05/17 01:33:29;;;;;;;;;;;;;;;;;;5053547;28;19920;-43
2022/05/17 01:35:54;;;;;;;;;;;;;;;;;;5054105;28;20351;-43
2022/05/17 01:38:19;;;;;;;;;;;;;;;;;;5054228;28;19995;-43
2022/05/17 01:40:44;;;;;;;;;;;;;;;;;;5054368;28;19913;-42
2022/05/17 01:43:09;;;;;;;;;;;;;;;;;;5054245;28;20055;-43
2022/05/17 01:45:34;;;;;;;;;;;;;;;;;;5053947;28;20050;-43
2022/05/17 01:47:59;;;;;;;;;;;;;;;;;;5054159;28;19913;-43
2022/05/17 01:50:24;;;;;;;;;;;;;;;;;;5053867;28;20394;-43
2022/05/17 01:52:50;;;;;;;;;;;;;;;;;;5054100;28;20334;-44
2022/05/17 01:55:15;;;;;;;;;;;;;;;;;;5056135;28;19921;-43
2022/05/17 01:57:40;;;;;;;;;;;;;;;;;;5054057;28;20048;-42
2022/05/17 02:00:05;;;;;;;;;;;;;;;;;;5054087;28;19909;-44
2022/05/17 02:02:30;;;;;;;;;;;;;;;;;;5057099;28;19917;-43
2022/05/17 02:04:55;;;;;;;;;;;;;;;;;;5057566;28;20317;-43
2022/05/17 02:07:20;;;;;;;;;;;;;;;;;;5057947;28;20011;-43
2022/05/17 02:09:47;;;;;;;;;;;;;;;;;;5057789;28;19909;-43
2022/05/17 02:12:12;;;;;;;;;;;;;;;;;;5057843;28;20275;-43
2022/05/17 02:14:37;;;;;;;;;;;;;;;;;;5057450;28;19909;-43
2022/05/17 02:17:02;;;;;;;;;;;;;;;;;;5057611;28;20383;-43
2022/05/17 02:19:29;;;;;;;;;;;;;;;;;;5057491;28;19909;-43
2022/05/17 02:21:54;;;;;;;;;;;;;;;;;;5057468;28;19923;-43
2022/05/17 02:24:19;;;;;;;;;;;;;;;;;;5059178;28;20015;-43
2022/05/17 02:26:44;;;;;;;;;;;;;;;;;;5077249;28;20015;-43
2022/05/17 02:29:09;;;;;;;;;;;;;;;;;;5077366;28;20407;-43
2022/05/17 02:31:34;;;;;;;;;;;;;;;;;;5077395;28;20300;-43
2022/05/17 02:33:59;;;;;;;;;;;;;;;;;;5077432;28;19908;-43
2022/05/17 02:36:24;;;;;;;;;;;;;;;;;;5076913;28;19912;-43
2022/05/17 02:38:50;;;;;;;;;;;;;;;;;;5077084;28;20291;-43
2022/05/17 02:41:17;;;;;;;;;;;;;;;;;;5077457;28;19905;-42
2022/05/17 02:43:43;;;;;;;;;;;;;;;;;;5077170;28;19909;-43
2022/05/17 02:46:08;;;;;;;;;;;;;;;;;;5060898;28;19920;-42
2022/05/17 02:48:33;;;;;;;;;;;;;;;;;;5057007;28;19962;-43
2022/05/17 02:50:58;;;;;;;;;;;;;;;;;;5056710;28;19981;-43
2022/05/17 02:53:23;;;;;;;;;;;;;;;;;;5056973;28;19916;-44
2022/05/17 02:55:48;;;;;;;;;;;;;;;;;;5056317;28;19912;-43
2022/05/17 02:58:13;;;;;;;;;;;;;;;;;;5056951;28;19913;-43
2022/05/17 03:00:38;;;;;;;;;;;;;;;;;;5055850;28;19909;-43
2022/05/17 03:03:04;;;;;;;;;;;;;;;;;;5055630;28;19913;-43
2022/05/17 03:05:29;;;;;;;;;;;;;;;;;;5066271;28;19966;-43
2022/05/17 03:07:54;;;;;;;;;;;;;;;;;;5076571;28;20058;-43
2022/05/17 03:10:19;;;;;;;;;;;;;;;;;;5076607;28;19909;-43
2022/05/17 03:12:44;;;;;;;;;;;;;;;;;;5076619;28;19916;-43
2022/05/17 03:15:09;;;;;;;;;;;;;;;;;;5076240;28;20382;-43
2022/05/17 03:17:34;;;;;;;;;;;;;;;;;;5076290;28;19920;-43
2022/05/17 03:19:59;;;;;;;;;;;;;;;;;;5076489;28;19909;-42
2022/05/17 03:22:24;;;;;;;;;;;;;;;;;;5076423;28;19908;-44
2022/05/17 03:24:50;;;;;;;;;;;;;;;;;;5076110;28;20314;-43
2022/05/17 03:27:15;;;;;;;;;;;;;;;;;;5076166;28;19912;-45
2022/05/17 03:29:40;;;;;;;;;;;;;;;;;;5076216;28;20442;-43
2022/05/17 03:32:05;;;;;;;;;;;;;;;;;;5074872;28;20061;-42
2022/05/17 03:34:30;;;;;;;;;;;;;;;;;;5075867;28;19940;-43
2022/05/17 03:36:55;;;;;;;;;;;;;;;;;;5075936;28;20339;-43
2022/05/17 03:39:20;;;;;;;;;;;;;;;;;;5076089;28;20278;-42
2022/05/17 03:41:45;;;;;;;;;;;;;;;;;;5075962;28;19938;-43
2022/05/17 03:44:10;;;;;;;;;;;;;;;;;;5076035;28;20011;-43
2022/05/17 03:46:36;;;;;;;;;;;;;;;;;;5060029;28;19917;-43
2022/05/17 03:49:01;;;;;;;;;;;;;;;;;;5062464;28;19923;-43
2022/05/17 03:51:26;;;;;;;;;;;;;;;;;;5055725;28;20445;-43
2022/05/17 03:53:51;;;;;;;;;;;;;;;;;;5055835;28;20002;-43
2022/05/17 03:56:16;;;;;;;;;;;;;;;;;;5055534;28;19920;-43
2022/05/17 03:58:41;;;;;;;;;;;;;;;;;;5055797;28;19916;-43
2022/05/17 04:01:07;;;;;;;;;;;;;;;;;;5055529;28;20360;-43
2022/05/17 04:03:32;;;;;;;;;;;;;;;;;;5055590;28;19938;-43
2022/05/17 04:05:57;;;;;;;;;;;;;;;;;;5055202;28;19913;-43
2022/05/17 04:08:22;;;;;;;;;;;;;;;;;;5055385;28;20302;-43
2022/05/17 04:10:47;;;;;;;;;;;;;;;;;;5055369;28;19909;-43
2022/05/17 04:13:13;;;;;;;;;;;;;;;;;;5055524;28;20409;-44
2022/05/17 04:15:38;;;;;;;;;;;;;;;;;;5054988;28;19967;-43
2022/05/17 04:18:03;;;;;;;;;;;;;;;;;;5054172;28;19917;-43
2022/05/17 04:20:28;;;;;;;;;;;;;;;;;;5055253;28;19912;-43
2022/05/17 04:22:56;;;;;;;;;;;;;;;;;;5055222;28;20363;-43
2022/05/17 04:25:21;;;;;;;;;;;;;;;;;;5054358;28;20384;-44
2022/05/17 04:27:47;;;;;;;;;;;;;;;;;;5055101;28;19913;-43
2022/05/17 04:30:12;;;;;;;;;;;;;;;;;;5055150;28;20428;-43
2022/05/17 04:32:37;;;;;;;;;;;;;;;;;;5054979;28;19924;-43
2022/05/17 04:35:03;;;;;;;;;;;;;;;;;;5054798;28;19966;-43
2022/05/17 04:37:28;;;;;;;;;;;;;;;;;;5054978;28;20054;-43
2022/05/17 04:39:53;;;;;;;;;;;;;;;;;;5054919;28;20434;-43
2022/05/17 04:42:18;;;;;;;;;;;;;;;;;;5054865;28;20419;-43
2022/05/17 04:44:43;;;;;;;;;;;;;;;;;;5054659;28;19990;-43
2022/05/17 04:47:09;;;;;;;;;;;;;;;;;;5054628;28;19944;-43
2022/05/17 04:49:34;;;;;;;;;;;;;;;;;;5054852;28;19915;-44
2022/05/17 04:51:59;;;;;;;;;;;;;;;;;;5054752;28;19925;-43
2022/05/17 04:54:24;;;;;;;;;;;;;;;;;;5055260;28;19909;-43
2022/05/17 04:56:49;;;;;;;;;;;;;;;;;;5074621;28;20429;-44
2022/05/17 04:59:14;;;;;;;;;;;;;;;;;;5074545;28;20377;-44
2022/05/17 05:01:40;;;;;;;;;;;;;;;;;;5074710;28;20279;-44
2022/05/17 05:04:05;;;;;;;;;;;;;;;;;;5074579;28;19908;-43
2022/05/17 05:06:30;;;;;;;;;;;;;;;;;;5055616;28;19924;-43
2022/05/17 05:08:55;;;;;;;;;;;;;;;;;;5054416;28;20307;-44
2022/05/17 05:11:20;;;;;;;;;;;;;;;;;;5054573;28;19913;-43
2022/05/17 05:13:45;;;;;;;;;;;;;;;;;;5054650;28;20386;-43
2022/05/17 05:16:10;;;;;;;;;;;;;;;;;;5054316;28;19913;-42
2022/05/17 05:18:36;;;;;;;;;;;;;;;;;;5054423;28;19909;-43
2022/05/17 05:21:01;;;;;;;;;;;;;;;;;;5053265;28;19904;-43
2022/05/17 05:23:26;;;;;;;;;;;;;;;;;;5052894;28;20026;-43
2022/05/17 05:25:51;;;;;;;;;;;;;;;;;;5050749;28;19939;-44
2022/05/17 05:28:16;;;;;;;;;;;;;;;;;;5044799;28;19928;-42
2022/05/17 05:30:41;;;;;;;;;;;;;;;;;;5046537;28;21328;-46
2022/05/17 05:33:07;;;;;;;;;;;;;;;;;;5062925;28;19936;-46
2022/05/17 05:35:32;;;;;;;;;;;;;;;;;;5047788;28;19923;-46
2022/05/17 05:37:57;;;;;;;;;;;;;;;;;;5042573;28;19912;-47
2022/05/17 05:40:22;;;;;;;;;;;;;;;;;;5053389;28;19917;-48
2022/05/17 05:42:53;;;;;;;;;;;;;;;;;;5057201;28;19920;-47
2022/05/17 05:45:19;;;;;;;;;;;;;;;;;;5049018;28;20030;-47
2022/05/17 05:47:44;;;;;;;;;;;;;;;;;;5046186;28;20075;-48
2022/05/17 05:50:10;;;;;;;;;;;;;;;;;;5049240;28;19960;-47
2022/05/17 05:52:35;;;;;;;;;;;;;;;;;;5047399;28;20020;-48
2022/05/17 05:55:00;;;;;;;;;;;;;;;;;;5055868;28;19921;-48
2022/05/17 05:57:25;;;;;;;;;;;;;;;;;;5049139;28;19920;-47
2022/05/17 05:59:50;;;;;;;;;;;;;;;;;;5047207;28;19984;-48
2022/05/17 06:02:15;;;;;;;;;;;;;;;;;;5047131;28;20322;-48
2022/05/17 06:04:41;;;;;;;;;;;;;;;;;;5042110;28;19924;-47
2022/05/17 06:07:06;;;;;;;;;;;;;;;;;;5024940;28;19931;-47
2022/05/17 06:09:31;;;;;;;;;;;;;;;;;;5034403;28;19963;-47
2022/05/17 06:11:57;;;;;;;;;;;;;;;;;;5018484;28;20488;-50
2022/05/17 06:14:22;;;;;;;;;;;;;;;;;;5020258;28;19983;-48
2022/05/17 06:16:47;;;;;;;;;;;;;;;;;;4980998;28;20698;-47
2022/05/17 06:19:12;;;;;;;;;;;;;;;;;;4942042;28;19921;-49
2022/05/17 06:21:37;;;;;;;;;;;;;;;;;;4881518;28;21309;-48
2022/05/17 06:24:02;;;;;;;;;;;;;;;;;;4859995;28;19968;-49
2022/05/17 06:26:27;;;;;;;;;;;;;;;;;;4804127;28;22617;-52
2022/05/17 06:28:53;;;;;;;;;;;;;;;;;;4746279;28;19920;-48
2022/05/17 06:31:18;;;;;;;;;;;;;;;;;;4696385;28;23911;-49
2022/05/17 06:33:43;;;;;;;;;;;;;;;;;;4797107;28;20384;-48
2022/05/17 06:36:08;;;;;;;;;;;;;;;;;;4831367;28;20035;-49
2022/05/17 06:38:33;;;;;;;;;;;;;;;;;;4849830;28;20672;-48
2022/05/17 06:40:58;;;;;;;;;;;;;;;;;;4834908;28;21224;-50
2022/05/17 06:43:23;;;;;;;;;;;;;;;;;;4865535;28;20462;-47
2022/05/17 06:45:49;;;;;;;;;;;;;;;;;;4872610;28;20643;-49
2022/05/17 06:48:14;;;;;;;;;;;;;;;;;;4870265;28;20019;-49
2022/05/17 06:50:39;;;;;;;;;;;;;;;;;;4866078;28;21034;-49
2022/05/17 06:53:07;;;;;;;;;;;;;;;;;;4881297;28;19931;-49
2022/05/17 06:55:32;;;;;;;;;;;;;;;;;;4900651;28;19928;-48
2022/05/17 06:57:57;;;;;;;;;;;;;;;;;;4898959;28;20707;-49
2022/05/17 07:00:22;;;;;;;;;;;;;;;;;;4865654;28;23298;-49
2022/05/17 07:02:47;;;;;;;;;;;;;;;;;;4855922;28;19921;-50
2022/05/17 07:05:12;;;;;;;;;;;;;;;;;;4851161;28;20051;-50
2022/05/17 07:07:37;;;;;;;;;;;;;;;;;;4843232;28;26918;-49
2022/05/17 07:15:30;;;;;;;;;;;;;;;;;;4648610;28;20418;-48
2022/05/17 07:17:55;;;;;;;;;;;;;;;;;;4549619;28;21299;-49
2022/05/17 07:20:20;;;;;;;;;;;;;;;;;;4524860;28;21754;-49
2022/05/17 07:22:45;;;;;;;;;;;;;;;;;;4427883;28;26214;-48
2022/05/17 07:25:11;;;;;;;;;;;;;;;;;;4569077;28;34593;-50
2022/05/17 07:27:36;;;;;;;;;;;;;;;;;;4661107;28;25262;-48
2022/05/17 07:30:02;;;;;;;;;;;;;;;;;;4665591;28;37239;-48
2022/05/17 07:32:27;;;;;;;;;;;;;;;;;;4673798;28;35214;-50
2022/05/17 07:34:52;;;;;;;;;;;;;;;;;;4719304;28;23866;-50
2022/05/17 07:37:17;;;;;;;;;;;;;;;;;;4719733;28;38013;-50
2022/05/17 07:39:42;;;;;;;;;;;;;;;;;;4752557;28;23830;-49
2022/05/17 07:42:07;;;;;;;;;;;;;;;;;;4735046;28;24436;-49
2022/05/17 07:44:33;;;;;;;;;;;;;;;;;;4752702;28;24517;-49
2022/05/17 07:46:58;;;;;;;;;;;;;;;;;;4775764;28;27993;-49
2022/05/17 07:49:23;;;;;;;;;;;;;;;;;;4739069;28;33620;-49
2022/05/17 07:51:48;;;;;;;;;;;;;;;;;;4705513;28;28046;-49
2022/05/17 07:54:14;;;;;;;;;;;;;;;;;;4738433;28;36849;-49
2022/05/17 07:56:39;;;;;;;;;;;;;;;;;;4667782;28;28122;-50
2022/05/17 07:59:04;;;;;;;;;;;;;;;;;;4697529;28;23979;-50
2022/05/17 08:01:29;;;;;;;;;;;;;;;;;;4634674;28;30696;-51
2022/05/17 08:03:55;;;;;;;;;;;;;;;;;;4623571;28;29381;-49
2022/05/17 08:06:20;;;;;;;;;;;;;;;;;;4647194;28;37679;-50
2022/05/17 08:08:45;;;;;;;;;;;;;;;;;;4532957;28;40856;-50
2022/05/17 08:11:10;;;;;;;;;;;;;;;;;;4484767;28;47513;-50
2022/05/17 08:13:35;;;;;;;;;;;;;;;;;;4359983;28;41924;-49
2022/05/17 08:16:00;;;;;;;;;;;;;;;;;;4596784;28;50156;-48
2022/05/17 08:18:26;;;;;;;;;;;;;;;;;;4677314;28;41379;-47
2022/05/17 08:20:51;;;;;;;;;;;;;;;;;;4691053;28;37717;-49
2022/05/17 08:23:16;;;;;;;;;;;;;;;;;;4671657;28;30377;-49
2022/05/17 08:28:25;;;;;;;;;;;;;;;;;;4532879;28;20026;-47
2022/05/17 08:30:50;;;;;;;;;;;;;;;;;;4504242;28;23233;-49
2022/05/17 08:33:15;;;;;;;;;;;;;;;;;;4519696;28;30554;-49
2022/05/17 08:35:41;;;;;;;;;;;;;;;;;;4594578;28;30066;-49
2022/05/17 08:38:06;;;;;;;;;;;;;;;;;;4614750;28;34842;-48
2022/05/17 08:40:31;;;;;;;;;;;;;;;;;;4692207;28;30709;-48
2022/05/17 08:42:56;;;;;;;;;;;;;;;;;;4670983;28;26653;-49
2022/05/17 08:45:21;;;;;;;;;;;;;;;;;;4729807;28;34648;-50
2022/05/17 08:47:46;;;;;;;;;;;;;;;;;;4671094;28;32092;-50
2022/05/17 08:50:11;;;;;;;;;;;;;;;;;;4682731;23;30102;-50
2022/05/17 08:52:37;;;;;;;;;;;;;;;;;;4664227;28;32319;-49
2022/05/17 08:55:02;;;;;;;;;;;;;;;;;;4673646;28;38466;-48
2022/05/17 08:57:29;;;;;;;;;;;;;;;;;;4696574;28;24579;-47
2022/05/17 08:59:54;;;;;;;;;;;;;;;;;;4726781;28;20918;-49
2022/05/17 09:02:19;;;;;;;;;;;;;;;;;;4711240;28;20430;-47
2022/05/17 09:04:44;;;;;;;;;;;;;;;;;;4695770;28;33281;-49
2022/05/17 09:07:09;;;;;;;;;;;;;;;;;;4685604;28;21580;-48
2022/05/17 09:09:34;;;;;;;;;;;;;;;;;;4678113;28;26020;-49
2022/05/17 09:11:59;;;;;;;;;;;;;;;;;;4651896;28;28053;-47
2022/05/17 09:14:25;;;;;;;;;;;;;;;;;;4699206;28;21648;-48
2022/05/17 09:16:50;;;;;;;;;;;;;;;;;;4685510;28;26090;-47
2022/05/17 09:19:15;;;;;;;;;;;;;;;;;;4614817;28;25406;-47
2022/05/17 09:21:41;;;;;;;;;;;;;;;;;;4535047;28;21832;-47
2022/05/17 09:24:06;;;;;;;;;;;;;;;;;;4415308;28;19928;-48
2022/05/17 09:26:34;;;;;;;;;;;;;;;;;;4443790;28;29255;-50
2022/05/17 09:28:59;;;;;;;;;;;;;;;;;;4572933;28;22765;-48
2022/05/17 09:31:24;;;;;;;;;;;;;;;;;;4650465;28;24336;-49
2022/05/17 09:33:49;;;;;;;;;;;;;;;;;;4652098;28;29252;-50
2022/05/17 09:36:14;;;;;;;;;;;;;;;;;;4589691;28;26841;-50
2022/05/17 09:38:40;;;;;;;;;;;;;;;;;;4662680;28;26382;-47
2022/05/17 09:41:05;;;;;;;;;;;;;;;;;;4689367;28;23626;-48
2022/05/17 09:43:30;;;;;;;;;;;;;;;;;;4670084;28;35431;-46
2022/05/17 09:45:58;;;;;;;;;;;;;;;;;;4693830;28;25698;-49
2022/05/17 09:48:23;;;;;;;;;;;;;;;;;;4690593;28;49011;-49
2022/05/17 09:53:32;;;;;;;;;;;;;;;;;;4680106;28;19927;-50
2022/05/17 09:55:57;;;;;;;;;;;;;;;;;;4678250;28;34628;-49
2022/05/17 09:58:22;;;;;;;;;;;;;;;;;;4614055;28;35126;-49
2022/05/17 10:00:47;;;;;;;;;;;;;;;;;;4651704;28;22107;-49
2022/05/17 10:03:12;;;;;;;;;;;;;;;;;;4654049;28;37868;-50
2022/05/17 10:05:40;;;;;;;;;;;;;;;;;;4649059;28;25915;-49
2022/05/17 10:08:05;;;;;;;;;;;;;;;;;;4631182;28;21536;-45
2022/05/17 10:10:31;;;;;;;;;;;;;;;;;;4518470;28;31775;-45
2022/05/17 10:12:56;;;;;;;;;;;;;;;;;;4618279;28;42276;-44
2022/05/17 10:15:21;;;;;;;;;;;;;;;;;;4525416;28;40786;-46
2022/05/17 10:17:49;;;;;;;;;;;;;;;;;;4633383;28;34691;-46
2022/05/17 10:20:15;;;;;;;;;;;;;;;;;;4693614;28;30569;-47
2022/05/17 10:22:40;;;;;;;;;;;;;;;;;;4748096;28;27663;-45
2022/05/17 10:25:05;;;;;;;;;;;;;;;;;;4783460;28;20567;-46
2022/05/17 10:27:30;;;;;;;;;;;;;;;;;;4721605;28;27157;-44
2022/05/17 10:29:55;;;;;;;;;;;;;;;;;;4706873;28;41830;-44
2022/05/17 10:32:20;;;;;;;;;;;;;;;;;;4690393;28;32846;-45
2022/05/17 10:34:46;;;;;;;;;;;;;;;;;;4722002;28;27546;-43
2022/05/17 10:37:12;;;;;;;;;;;;;;;;;;4666136;28;22244;-44
2022/05/17 10:39:38;;;;;;;;;;;;;;;;;;4520023;28;25625;-44
2022/05/17 10:42:03;;;;;;;;;;;;;;;;;;4523466;28;27462;-48
2022/05/17 10:44:28;;;;;;;;;;;;;;;;;;4648931;28;31076;-44
2022/05/17 10:46:53;;;;;;;;;;;;;;;;;;4738009;28;24306;-44
2022/05/17 10:49:18;;;;;;;;;;;;;;;;;;4750310;28;19971;-45
2022/05/17 10:51:43;;;;;;;;;;;;;;;;;;4744092;28;20936;-45
2022/05/17 10:54:09;;;;;;;;;;;;;;;;;;4671369;28;25769;-44
2022/05/17 10:56:34;;;;;;;;;;;;;;;;;;4682058;28;23612;-47
2022/05/17 10:58:59;;;;;;;;;;;;;;;;;;4677098;28;35734;-45
2022/05/17 11:01:24;;;;;;;;;;;;;;;;;;4719518;28;34939;-45
2022/05/17 11:03:49;;;;;;;;;;;;;;;;;;4690281;28;21359;-45
2022/05/17 11:06:14;;;;;;;;;;;;;;;;;;4677915;28;22205;-45
2022/05/17 11:08:40;;;;;;;;;;;;;;;;;;4707220;28;19928;-46
2022/05/17 11:11:05;;;;;;;;;;;;;;;;;;4710168;28;19921;-45
2022/05/17 11:13:30;;;;;;;;;;;;;;;;;;4698291;28;20538;-45
2022/05/17 11:15:55;;;;;;;;;;;;;;;;;;4717691;28;22869;-45
2022/05/17 11:18:21;;;;;;;;;;;;;;;;;;4788879;28;23132;-42
2022/05/17 11:20:46;;;;;;;;;;;;;;;;;;4813827;28;20375;-44
2022/05/17 11:23:11;;;;;;;;;;;;;;;;;;4802978;28;20322;-45
2022/05/17 11:25:37;;;;;;;;;;;;;;;;;;4814745;28;22881;-45
2022/05/17 11:28:02;;;;;;;;;;;;;;;;;;4787282;28;23038;-45
2022/05/17 11:30:27;;;;;;;;;;;;;;;;;;4743577;28;25790;-45
2022/05/17 11:32:53;;;;;;;;;;;;;;;;;;4734936;28;24968;-45
2022/05/17 11:35:18;;;;;;;;;;;;;;;;;;4761894;28;25083;-45
2022/05/17 11:37:43;;;;;;;;;;;;;;;;;;4792728;28;35679;-45
2022/05/17 11:40:08;;;;;;;;;;;;;;;;;;4827887;28;25488;-45
2022/05/17 11:42:33;;;;;;;;;;;;;;;;;;4819096;28;27359;-45
2022/05/17 11:44:58;;;;;;;;;;;;;;;;;;4806256;28;28730;-45
2022/05/17 11:47:23;;;;;;;;;;;;;;;;;;4791738;28;29551;-45
2022/05/17 11:49:48;;;;;;;;;;;;;;;;;;4807878;28;19962;-45
2022/05/17 11:52:14;;;;;;;;;;;;;;;;;;4759921;28;25399;-44
2022/05/17 11:54:45;;;;;;;;;;;;;;;;;;4787401;28;24944;-45
2022/05/17 11:57:10;;;;;;;;;;;;;;;;;;4806802;28;29465;-45
2022/05/17 11:59:35;;;;;;;;;;;;;;;;;;4799769;28;32132;-44
2022/05/17 12:02:00;;;;;;;;;;;;;;;;;;4789363;28;32332;-45
2022/05/17 12:04:26;;;;;;;;;;;;;;;;;;4796236;28;30782;-45
2022/05/17 12:06:51;;;;;;;;;;;;;;;;;;4804090;28;19924;-45
2022/05/17 12:09:17;;;;;;;;;;;;;;;;;;4816429;28;21870;-45
2022/05/17 12:11:42;;;;;;;;;;;;;;;;;;4804438;28;34718;-46
2022/05/17 12:14:08;;;;;;;;;;;;;;;;;;4790331;28;28461;-45
2022/05/17 12:16:33;;;;;;;;;;;;;;;;;;4767957;28;23829;-45
2022/05/17 12:18:58;;;;;;;;;;;;;;;;;;4786903;28;22370;-44
2022/05/17 12:21:23;;;;;;;;;;;;;;;;;;4733819;28;31428;-44
2022/05/17 12:23:49;;;;;;;;;;;;;;;;;;4725216;28;20883;-44
2022/05/17 12:26:14;;;;;;;;;;;;;;;;;;4751202;28;19971;-45
2022/05/17 12:28:39;;;;;;;;;;;;;;;;;;4791446;28;43230;-44
2022/05/17 12:31:04;;;;;;;;;;;;;;;;;;4800937;28;35336;-45
2022/05/17 12:33:29;;;;;;;;;;;;;;;;;;4797779;28;39748;-44
2022/05/17 12:35:54;;;;;;;;;;;;;;;;;;4838848;28;37299;-45
2022/05/17 12:43:48;;;;;;;;;;;;;;;;;;4840312;28;19967;-45
2022/05/17 12:46:14;;;;;;;;;;;;;;;;;;4821777;28;19920;-46
2022/05/17 12:48:39;;;;;;;;;;;;;;;;;;4823726;28;19925;-45
2022/05/17 12:51:04;;;;;;;;;;;;;;;;;;4811215;28;24916;-47
2022/05/17 12:53:29;;;;;;;;;;;;;;;;;;4806491;28;32650;-45
2022/05/17 12:55:55;;;;;;;;;;;;;;;;;;4816749;28;25904;-45
2022/05/17 12:58:21;;;;;;;;;;;;;;;;;;4828190;28;29302;-45
2022/05/17 13:00:47;;;;;;;;;;;;;;;;;;4835454;28;30715;-45
2022/05/17 13:03:12;;;;;;;;;;;;;;;;;;4835686;28;19920;-45
2022/05/17 13:05:37;;;;;;;;;;;;;;;;;;4806163;28;31269;-45
2022/05/17 13:08:02;;;;;;;;;;;;;;;;;;4737092;28;21396;-45
2022/05/17 13:10:27;;;;;;;;;;;;;;;;;;4784390;28;20011;-47
2022/05/17 13:12:52;;;;;;;;;;;;;;;;;;4677623;28;21340;-45
2022/05/17 13:15:17;;;;;;;;;;;;;;;;;;4758093;28;28916;-48
2022/05/17 13:17:43;;;;;;;;;;;;;;;;;;4808414;28;26228;-44
2022/05/17 13:20:08;;;;;;;;;;;;;;;;;;4867333;28;20845;-46
2022/05/17 13:22:33;;;;;;;;;;;;;;;;;;4901294;28;23910;-43
2022/05/17 13:24:58;;;;;;;;;;;;;;;;;;4926603;28;20781;-45
2022/05/17 13:27:24;;;;;;;;;;;;;;;;;;4939999;28;20113;-45
2022/05/17 13:29:49;;;;;;;;;;;;;;;;;;4955685;28;20451;-44
2022/05/17 13:32:14;;;;;;;;;;;;;;;;;;4952515;28;34899;-45
2022/05/17 13:34:39;;;;;;;;;;;;;;;;;;4944212;28;20662;-45
2022/05/17 13:37:04;;;;;;;;;;;;;;;;;;4962972;28;20777;-45
2022/05/17 13:39:30;;;;;;;;;;;;;;;;;;4966571;28;19924;-45
2022/05/17 13:41:55;;;;;;;;;;;;;;;;;;4962235;28;20778;-44
2022/05/17 13:44:20;;;;;;;;;;;;;;;;;;4950616;28;21616;-45
2022/05/17 13:46:45;;;;;;;;;;;;;;;;;;4963999;28;19967;-44
2022/05/17 13:49:10;;;;;;;;;;;;;;;;;;4978249;23;21419;-47
2022/05/17 13:51:36;;;;;;;;;;;;;;;;;;4973168;28;20334;-45
2022/05/17 13:54:01;;;;;;;;;;;;;;;;;;4964594;28;19966;-46
2022/05/17 13:56:28;;;;;;;;;;;;;;;;;;4952379;28;19921;-45
2022/05/17 13:58:53;;;;;;;;;;;;;;;;;;4926877;28;19920;-46
2022/05/17 14:01:18;;;;;;;;;;;;;;;;;;4904424;28;20000;-45
2022/05/17 14:03:43;;;;;;;;;;;;;;;;;;4938391;28;19920;-45
2022/05/17 14:06:08;;;;;;;;;;;;;;;;;;4948526;28;24261;-45
2022/05/17 14:14:01;;;;;;;;;;;;;;;;;;4992751;28;21285;-45
2022/05/17 14:16:30;;;;;;;;;;;;;;;;;;4998060;28;19921;-45
2022/05/17 14:18:55;;;;;;;;;;;;;;;;;;5001249;28;21516;-45
2022/05/17 14:21:20;;;;;;;;;;;;;;;;;;4998753;28;19924;-44
2022/05/17 14:23:50;;;;;;;;;;;;;;;;;;4960544;28;19921;-45
2022/05/17 14:26:17;;;;;;;;;;;;;;;;;;4905378;28;19943;-45
2022/05/17 14:28:42;;;;;;;;;;;;;;;;;;4883689;28;20029;-45
2022/05/17 14:31:07;;;;;;;;;;;;;;;;;;4867763;28;20006;-45
2022/05/17 14:33:32;;;;;;;;;;;;;;;;;;4934537;28;19920;-44
2022/05/17 14:35:57;;;;;;;;;;;;;;;;;;4869911;28;19927;-45
2022/05/17 14:38:23;;;;;;;;;;;;;;;;;;4864344;28;19924;-48
2022/05/17 14:40:48;;;;;;;;;;;;;;;;;;4879451;28;19941;-45
2022/05/17 14:43:13;;;;;;;;;;;;;;;;;;4886663;28;20102;-45
2022/05/17 14:45:38;;;;;;;;;;;;;;;;;;4872322;28;22098;-45
2022/05/17 14:48:03;;;;;;;;;;;;;;;;;;4908768;28;22143;-45
2022/05/17 14:50:28;;;;;;;;;;;;;;;;;;4929512;28;19960;-45
2022/05/17 14:52:56;;;;;;;;;;;;;;;;;;4947955;28;19928;-45
2022/05/17 14:55:21;;;;;;;;;;;;;;;;;;4962956;28;22043;-43
2022/05/17 14:57:46;;;;;;;;;;;;;;;;;;4986868;28;20066;-44
2022/05/17 15:00:12;;;;;;;;;;;;;;;;;;4990487;28;19920;-43
2022/05/17 15:02:37;;;;;;;;;;;;;;;;;;5005620;28;20055;-44
2022/05/17 15:05:03;;;;;;;;;;;;;;;;;;5008627;28;19920;-45
2022/05/17 15:07:28;;;;;;;;;;;;;;;;;;4997712;23;20006;-45
2022/05/17 15:09:53;;;;;;;;;;;;;;;;;;4991714;28;20036;-44
2022/05/17 15:12:18;;;;;;;;;;;;;;;;;;4992906;28;19925;-45
2022/05/17 15:14:43;;;;;;;;;;;;;;;;;;4993906;28;19929;-44
2022/05/17 15:17:08;;;;;;;;;;;;;;;;;;5000632;28;19932;-45
2022/05/17 15:19:33;;;;;;;;;;;;;;;;;;5020209;28;19921;-44
2022/05/17 15:21:59;;;;;;;;;;;;;;;;;;5014606;28;20308;-44
2022/05/17 15:24:24;;;;;;;;;;;;;;;;;;5015257;28;20283;-43
2022/05/17 15:26:49;;;;;;;;;;;;;;;;;;5015869;28;19922;-45
2022/05/17 15:29:14;;;;;;;;;;;;;;;;;;5023259;28;19993;-44
2022/05/17 15:31:42;;;;;;;;;;;;;;;;;;5022765;28;19921;-43
2022/05/17 15:34:07;;;;;;;;;;;;;;;;;;5028247;28;19947;-43
2022/05/17 15:36:34;;;;;;;;;;;;;;;;;;5029930;28;20310;-44
2022/05/17 15:38:59;;;;;;;;;;;;;;;;;;5034450;28;19947;-43
2022/05/17 15:41:24;;;;;;;;;;;;;;;;;;5035054;28;19921;-44
2022/05/17 15:43:52;;;;;;;;;;;;;;;;;;5028101;28;20402;-45
2022/05/17 15:46:20;;;;;;;;;;;;;;;;;;5025270;28;19994;-44
2022/05/17 15:54:14;;;;;;;;;;;;;;;;;;5030397;28;19967;-46
2022/05/17 15:56:39;;;;;;;;;;;;;;;;;;5035938;28;19952;-43
2022/05/17 15:59:04;;;;;;;;;;;;;;;;;;5048513;28;19913;-44
2022/05/17 16:01:29;;;;;;;;;;;;;;;;;;5054266;28;19913;-44
2022/05/17 16:04:54;;;;;;;;;;;;;;;;;;5055871;28;19913;-43
2022/05/17 16:06:39;;;;;;;;;;;;;;;;;;5048853;28;19917;-43
2022/05/17 16:09:04;;;;;;;;;;;;;;;;;;5044044;28;19921;-44
2022/05/17 16:11:48;;;;;;;;;;;;;;;;;;5053550;28;19913;-43
2022/05/17 16:14:13;;;;;;;;;;;;;;;;;;5055633;28;20347;-45
2022/05/17 16:16:38;;;;;;;;;;;;;;;;;;5055188;28;19936;-47
2022/05/17 16:19:03;;;;;;;;;;;;;;;;;;5055356;28;19909;-44
2022/05/17 16:21:28;;;;;;;;;;;;;;;;;;5054639;28;19909;-43
2022/05/17 16:23:53;;;;;;;;;;;;;;;;;;5055298;28;19908;-45
2022/05/17 16:26:19;;;;;;;;;;;;;;;;;;5054945;28;19912;-44
2022/05/17 16:28:44;;;;;;;;;;;;;;;;;;5054956;28;19913;-44
2022/05/17 16:31:09;;;;;;;;;;;;;;;;;;5070757;28;19909;-44
2022/05/17 16:33:34;;;;;;;;;;;;;;;;;;5055052;28;19972;-45
2022/05/17 16:35:59;;;;;;;;;;;;;;;;;;5054776;28;19913;-45
2022/05/17 16:38:27;;;;;;;;;;;;;;;;;;5054785;28;19939;-45
2022/05/17 16:40:53;;;;;;;;;;;;;;;;;;5054924;28;19916;-45
2022/05/17 16:43:18;;;;;;;;;;;;;;;;;;5054928;28;19909;-47
2022/05/17 16:45:45;;;;;;;;;;;;;;;;;;5054444;28;20000;-45
2022/05/17 16:48:11;;;;;;;;;;;;;;;;;;5054872;28;20007;-44
2022/05/17 16:50:36;;;;;;;;;;;;;;;;;;5054792;28;19952;-45
2022/05/17 16:53:01;;;;;;;;;;;;;;;;;;5054733;28;19913;-45
2022/05/17 16:55:26;;;;;;;;;;;;;;;;;;5054299;28;20054;-44
2022/05/17 16:57:51;;;;;;;;;;;;;;;;;;5054735;28;19962;-45
2022/05/17 17:00:17;;;;;;;;;;;;;;;;;;5054622;28;19909;-46
2022/05/17 17:02:42;;;;;;;;;;;;;;;;;;5054542;28;19915;-44